createdAt,value
2023-03-17T00:01:09.820Z,2.64
2023-03-17T00:05:24.311Z,2.03
2023-03-17T00:09:27.084Z,2.07
2023-03-17T00:13:31.175Z,2.03
2023-03-17T00:17:33.836Z,2.07
2023-03-17T00:21:36.035Z,2.01
2023-03-17T00:25:43.098Z,2.04
2023-03-17T00:29:45.357Z,2.15
2023-03-17T00:33:49.024Z,2.30
2023-03-17T00:37:54.876Z,2.24
2023-03-17T00:41:57.080Z,2.39
2023-03-17T00:45:59.165Z,2.47
2023-03-17T00:50:01.377Z,2.49
2023-03-17T00:54:03.683Z,2.75
2023-03-17T00:58:33.966Z,2.45
2023-03-17T01:02:36.285Z,2.11
2023-03-17T01:06:38.682Z,2.08
2023-03-17T01:10:41.771Z,2.19
2023-03-17T01:14:44.142Z,2.15
2023-03-17T01:18:47.374Z,2.11
2023-03-17T01:22:50.703Z,2.18
2023-03-17T01:26:52.891Z,2.17
2023-03-17T01:30:55.644Z,2.22
2023-03-17T01:34:59.258Z,2.16
2023-03-17T01:39:01.937Z,2.49
2023-03-17T01:43:19.043Z,2.92
2023-03-17T01:47:22.292Z,3.39
2023-03-17T01:51:35.985Z,3.47
2023-03-17T01:55:38.643Z,3.64
2023-03-17T01:59:50.254Z,3.18
2023-03-17T02:03:53.727Z,3.03
2023-03-17T02:07:58.779Z,3.27
2023-03-17T02:12:05.405Z,3.17
2023-03-17T02:16:08.124Z,3.14
2023-03-17T02:20:16.311Z,2.94
2023-03-17T02:24:28.040Z,2.77
2023-03-17T02:28:31.798Z,2.57
2023-03-17T02:32:38.049Z,2.51
2023-03-17T02:36:40.797Z,2.54
2023-03-17T02:40:43.617Z,2.63
2023-03-17T02:44:45.874Z,2.71
2023-03-17T02:48:49.239Z,2.82
2023-03-17T02:52:51.892Z,2.94
2023-03-17T02:56:54.032Z,2.95
2023-03-17T03:00:56.681Z,3.04
2023-03-17T03:04:59.289Z,3.57
2023-03-17T03:09:01.880Z,3.78
2023-03-17T03:13:09.027Z,3.85
2023-03-17T03:17:12.832Z,3.92
2023-03-17T03:21:15.513Z,3.95
2023-03-17T03:25:18.008Z,3.88
2023-03-17T03:29:20.437Z,3.94
2023-03-17T03:33:22.891Z,3.83
2023-03-17T03:37:26.081Z,3.46
2023-03-17T03:41:28.338Z,3.14
2023-03-17T03:45:30.997Z,2.99
2023-03-17T03:49:33.574Z,3.00
2023-03-17T03:53:35.758Z,2.88
2023-03-17T03:57:37.978Z,3.10
2023-03-17T04:01:40.247Z,2.86
2023-03-17T04:05:42.341Z,2.74
2023-03-17T04:09:44.476Z,2.50
2023-03-17T04:13:46.646Z,2.37
2023-03-17T04:17:48.819Z,2.26
2023-03-17T04:21:53.592Z,2.32
2023-03-17T04:25:56.877Z,2.35
2023-03-17T04:29:59.453Z,2.46
2023-03-17T04:34:01.787Z,2.28
2023-03-17T04:38:04.451Z,2.57
2023-03-17T04:42:06.949Z,2.45
2023-03-17T04:46:09.513Z,2.06
2023-03-17T04:50:12.330Z,2.13
2023-03-17T04:54:14.501Z,2.32
2023-03-17T04:58:29.868Z,2.23
2023-03-17T05:02:32.543Z,2.23
2023-03-17T05:06:35.969Z,2.23
2023-03-17T05:10:38.038Z,2.32
2023-03-17T05:14:40.639Z,2.37
2023-03-17T05:18:43.789Z,2.39
2023-03-17T05:22:46.622Z,2.31
2023-03-17T05:26:48.873Z,2.56
2023-03-17T05:30:52.201Z,2.51
2023-03-17T05:34:54.584Z,2.47
2023-03-17T05:38:56.765Z,2.57
2023-03-17T05:42:58.918Z,2.60
2023-03-17T05:47:01.234Z,2.55
2023-03-17T05:51:03.719Z,2.46
2023-03-17T05:55:07.910Z,2.53
2023-03-17T05:59:14.968Z,2.63
2023-03-17T06:03:17.303Z,2.77
2023-03-17T06:07:19.475Z,2.90
2023-03-17T06:11:22.180Z,3.03
2023-03-17T06:20:19.517Z,3.32
2023-03-17T06:24:21.801Z,3.38
2023-03-17T06:28:25.073Z,3.65
2023-03-17T06:32:27.895Z,4.00
2023-03-17T06:36:32.618Z,4.23
2023-03-17T06:40:35.099Z,4.66
2023-03-17T06:44:38.073Z,4.88
2023-03-17T06:48:40.240Z,5.16
2023-03-17T06:52:42.828Z,5.58
2023-03-17T06:56:45.351Z,5.50
2023-03-17T07:00:49.454Z,5.60
2023-03-17T07:04:53.738Z,6.69
2023-03-17T07:08:56.837Z,7.07
2023-03-17T07:13:05.406Z,7.32
2023-03-17T07:17:14.876Z,7.48
2023-03-17T07:21:21.113Z,7.69
2023-03-17T07:25:24.222Z,7.89
2023-03-17T07:29:32.991Z,8.02
2023-03-17T07:33:37.142Z,8.11
2023-03-17T07:37:41.952Z,8.33
2023-03-17T07:41:44.455Z,8.58
2023-03-17T07:45:53.692Z,8.70
2023-03-17T07:49:58.176Z,8.86
2023-03-17T07:54:04.765Z,9.01
2023-03-17T07:58:15.794Z,9.19
2023-03-17T08:02:23.445Z,9.32
2023-03-17T08:06:26.740Z,9.48
2023-03-17T08:10:29.315Z,9.67
2023-03-17T08:14:32.461Z,9.81
2023-03-17T08:18:36.396Z,10.07
2023-03-17T08:22:40.981Z,10.28
2023-03-17T08:26:48.683Z,10.34
2023-03-17T08:30:51.293Z,10.47
2023-03-17T08:34:54.860Z,10.73
2023-03-17T08:38:59.113Z,10.82
2023-03-17T08:43:01.493Z,11.02
2023-03-17T08:47:04.454Z,11.13
2023-03-17T08:51:11.316Z,11.24
2023-03-17T08:55:15.542Z,11.31
2023-03-17T08:59:17.908Z,11.42
2023-03-17T09:03:21.668Z,11.43
2023-03-17T09:07:24.010Z,11.53
2023-03-17T09:11:30.658Z,11.59
2023-03-17T09:15:39.178Z,11.70
2023-03-17T09:19:43.886Z,11.68
2023-03-17T09:23:49.908Z,11.65
2023-03-17T09:27:55.904Z,11.78
2023-03-17T09:31:58.193Z,11.99
2023-03-17T09:36:00.762Z,12.07
2023-03-17T09:40:08.516Z,12.13
2023-03-17T09:44:26.424Z,12.31
2023-03-17T09:48:46.994Z,12.44
2023-03-17T09:52:55.538Z,12.68
2023-03-17T09:57:06.364Z,12.77
2023-03-17T10:01:10.752Z,12.75
2023-03-17T10:05:42.530Z,12.83
2023-03-17T10:10:15.665Z,13.08
2023-03-17T10:14:22.541Z,13.24
2023-03-17T10:18:31.462Z,13.30
2023-03-17T10:23:18.463Z,13.33
2023-03-17T10:27:21.740Z,13.48
2023-03-17T10:31:30.820Z,13.58
2023-03-17T10:35:37.216Z,13.79
2023-03-17T10:39:49.460Z,13.87
2023-03-17T10:43:52.283Z,13.91
2023-03-17T10:47:57.486Z,13.97
2023-03-17T10:52:00.988Z,14.05
2023-03-17T10:56:20.544Z,14.09
2023-03-17T11:00:23.538Z,14.36
2023-03-17T11:04:29.212Z,14.41
2023-03-17T11:08:35.562Z,14.52
2023-03-17T11:12:41.440Z,14.77
2023-03-17T11:16:56.956Z,14.88
2023-03-17T11:21:20.163Z,14.81
2023-03-17T11:25:23.685Z,15.04
2023-03-17T11:29:35.213Z,15.05
2023-03-17T11:33:40.533Z,14.90
2023-03-17T11:37:42.757Z,15.12
2023-03-17T11:42:10.917Z,15.39
2023-03-17T11:46:38.163Z,15.53
2023-03-17T11:50:45.809Z,15.62
2023-03-17T11:55:25.066Z,15.60
2023-03-17T11:59:47.659Z,15.75
2023-03-17T12:04:28.358Z,15.73
2023-03-17T12:08:45.582Z,15.82
2023-03-17T12:12:54.257Z,15.80
2023-03-17T12:17:00.763Z,15.78
2023-03-17T12:21:33.470Z,15.77
2023-03-17T12:25:57.907Z,15.79
2023-03-17T12:30:24.297Z,15.74
2023-03-17T12:34:36.972Z,15.85
2023-03-17T12:39:09.427Z,15.84
2023-03-17T12:43:36.515Z,15.86
2023-03-17T12:47:38.764Z,15.98
2023-03-17T12:51:53.825Z,15.96
2023-03-17T12:56:01.410Z,15.97
2023-03-17T13:00:15.501Z,16.03
2023-03-17T13:04:35.578Z,16.05
2023-03-17T13:08:41.353Z,15.96
2023-03-17T13:13:04.111Z,16.08
2023-03-17T13:17:19.976Z,16.12
2023-03-17T13:21:23.777Z,16.07
2023-03-17T13:25:38.428Z,16.22
2023-03-17T13:29:46.289Z,16.31
2023-03-17T13:33:54.976Z,16.49
2023-03-17T13:37:59.962Z,16.61
2023-03-17T13:42:26.734Z,16.60
2023-03-17T13:46:41.896Z,16.67
2023-03-17T13:50:44.789Z,16.72
2023-03-17T13:54:58.835Z,16.86
2023-03-17T13:59:05.580Z,16.98
2023-03-17T14:03:29.404Z,16.92
2023-03-17T14:07:51.079Z,16.88
2023-03-17T14:11:54.824Z,16.78
2023-03-17T14:16:33.047Z,16.60
2023-03-17T14:20:35.334Z,16.72
2023-03-17T14:24:37.505Z,16.88
2023-03-17T14:28:40.222Z,16.93
2023-03-17T14:32:47.415Z,16.95
2023-03-17T14:36:51.733Z,16.99
2023-03-17T14:41:00.963Z,16.98
2023-03-17T14:45:19.246Z,16.98
2023-03-17T14:49:23.233Z,17.10
2023-03-17T14:53:26.507Z,17.16
2023-03-17T14:57:33.413Z,17.20
2023-03-17T15:01:43.658Z,17.14
2023-03-17T15:05:46.815Z,17.16
2023-03-17T15:09:59.816Z,17.20
2023-03-17T15:14:21.607Z,17.22
2023-03-17T15:18:25.473Z,17.22
2023-03-17T15:22:41.587Z,17.12
2023-03-17T15:26:43.747Z,17.09
2023-03-17T15:30:51.592Z,17.18
2023-03-17T15:34:57.219Z,17.14
2023-03-17T15:38:59.533Z,17.16
2023-03-17T15:43:01.742Z,17.10
2023-03-17T15:47:04.437Z,17.16
2023-03-17T15:51:07.500Z,17.20
2023-03-17T15:55:21.425Z,17.25
2023-03-17T15:59:23.850Z,17.33
2023-03-17T16:03:32.750Z,17.42
2023-03-17T16:07:35.021Z,17.45
2023-03-17T16:11:39.388Z,17.46
2023-03-17T16:15:46.348Z,17.68
2023-03-17T16:19:48.881Z,18.12
2023-03-17T16:23:51.067Z,18.29
2023-03-17T16:27:55.719Z,18.49
2023-03-17T16:31:57.897Z,18.55
2023-03-17T16:36:01.434Z,18.63
2023-03-17T16:40:05.120Z,18.87
2023-03-17T16:44:11.712Z,18.77
2023-03-17T16:48:14.994Z,18.82
2023-03-17T16:52:17.392Z,18.71
2023-03-17T16:56:22.541Z,18.62
2023-03-17T17:00:28.577Z,18.28
2023-03-17T17:04:31.317Z,17.78
2023-03-17T17:08:33.648Z,17.35
2023-03-17T17:12:36.023Z,16.89
2023-03-17T17:16:42.144Z,16.57
2023-03-17T17:20:46.035Z,16.02
2023-03-17T17:24:48.246Z,15.40
2023-03-17T17:28:50.546Z,14.90
2023-03-17T17:32:53.346Z,14.59
2023-03-17T17:36:55.633Z,14.25
2023-03-17T17:40:59.570Z,13.89
2023-03-17T17:45:02.186Z,13.48
2023-03-17T17:49:04.621Z,13.04
2023-03-17T17:53:11.689Z,12.66
2023-03-17T17:57:14.524Z,12.35
2023-03-17T18:01:20.562Z,12.04
2023-03-17T18:05:23.098Z,11.66
2023-03-17T18:09:25.260Z,11.47
2023-03-17T18:13:27.475Z,11.21
2023-03-17T18:17:32.005Z,11.01
2023-03-17T18:21:36.640Z,11.10
2023-03-17T18:25:39.000Z,10.83
2023-03-17T18:29:41.616Z,10.66
2023-03-17T18:33:47.034Z,10.68
2023-03-17T18:37:50.940Z,10.27
2023-03-17T18:41:54.137Z,10.03
2023-03-17T18:45:56.380Z,9.81
2023-03-17T18:49:59.787Z,9.63
2023-03-17T18:54:03.079Z,9.56
2023-03-17T18:58:05.448Z,9.53
2023-03-17T19:02:08.692Z,9.30
2023-03-17T19:06:13.676Z,9.29
2023-03-17T19:10:16.201Z,9.22
2023-03-17T19:14:18.399Z,8.96
2023-03-17T19:18:20.860Z,8.88
2023-03-17T19:22:23.294Z,8.99
2023-03-17T19:26:26.078Z,9.00
2023-03-17T19:30:28.374Z,8.76
2023-03-17T19:34:30.636Z,8.65
2023-03-17T19:38:33.120Z,8.63
2023-03-17T19:42:35.609Z,8.38
2023-03-17T19:46:38.439Z,8.56
2023-03-17T19:50:41.217Z,8.43
2023-03-17T19:54:45.987Z,8.22
2023-03-17T19:58:48.253Z,8.08
2023-03-17T20:02:51.388Z,7.88
2023-03-17T20:06:55.782Z,7.73
2023-03-17T20:10:58.734Z,7.68
2023-03-17T20:15:01.620Z,7.58
2023-03-17T20:19:03.971Z,7.34
2023-03-17T20:23:06.104Z,7.11
2023-03-17T20:27:10.643Z,6.84
2023-03-17T20:31:12.775Z,6.69
2023-03-17T20:35:14.913Z,6.67
2023-03-17T20:39:20.061Z,6.76
2023-03-17T20:43:22.711Z,6.81
2023-03-17T20:47:24.951Z,6.87
2023-03-17T20:51:27.972Z,6.93
2023-03-17T20:55:30.935Z,6.81
2023-03-17T20:59:34.566Z,6.84
2023-03-17T21:03:37.424Z,6.92
2023-03-17T21:07:39.670Z,6.92
2023-03-17T21:11:42.276Z,6.71
2023-03-17T21:15:44.606Z,6.63
2023-03-17T21:19:47.464Z,6.44
2023-03-17T21:23:49.650Z,6.47
2023-03-17T21:27:52.850Z,6.36
2023-03-17T21:31:56.949Z,6.42
2023-03-17T21:35:59.558Z,6.36
2023-03-17T21:40:02.025Z,6.13
2023-03-17T21:44:06.301Z,5.97
2023-03-17T21:48:08.719Z,5.76
2023-03-17T21:52:11.454Z,5.65
2023-03-17T21:56:14.147Z,5.76
2023-03-17T22:00:17.442Z,5.78
2023-03-17T22:04:19.978Z,5.75
2023-03-17T22:08:22.832Z,5.77
2023-03-17T22:12:25.540Z,5.74
2023-03-17T22:16:28.224Z,5.68
2023-03-17T22:20:30.744Z,5.66
2023-03-17T22:24:33.672Z,5.62
2023-03-17T22:28:36.042Z,5.62
2023-03-17T22:32:38.280Z,5.44
2023-03-17T22:36:41.257Z,5.06
2023-03-17T22:40:43.652Z,5.09
2023-03-17T22:44:48.580Z,5.11
2023-03-17T22:48:51.962Z,4.88
2023-03-17T22:52:54.434Z,4.85
2023-03-17T22:56:57.136Z,4.79
2023-03-17T23:01:00.279Z,4.46
2023-03-17T23:05:02.949Z,4.42
2023-03-17T23:09:05.858Z,4.42
2023-03-17T23:13:08.778Z,4.47
2023-03-17T23:17:11.141Z,4.59
2023-03-17T23:21:21.372Z,4.51
2023-03-17T23:25:25.433Z,4.50
2023-03-17T23:29:27.863Z,4.62
2023-03-17T23:33:31.091Z,4.71
2023-03-17T23:37:33.476Z,4.66
2023-03-17T23:41:36.376Z,4.65
2023-03-17T23:45:41.341Z,4.54
2023-03-17T23:49:44.008Z,4.49
2023-03-17T23:53:46.585Z,4.41
2023-03-17T23:57:50.301Z,3.95
